Ohshima Kazumaru — JD2908 — position and weather

sailwx.info

Track history (hours):
 
Tides and Currents Weather Stations Pressure Air Temp Water Temp Dewpoint Dewpoint Depression Visibility Wind Speed Wind Dir Waves Ship Positions

Ohshima Kazumaru

Last reported at 2015-Mar-29 13:33 UTC. Time now 2015-Mar-29 13:41 UTC.
Position N 34°38' E 135°27'.

Length 69 m; draft 4 m.

Type: Cargo ship. MMSI: 431000925.

Date/timePositionNaut miles runAvg speedWind from/ knotsBaromVisibWave heightAir tempDewpointWater temp
2015-Mar-29 13:33N 34°38' E 135°27'0 0.0
2015-Mar-29 12:33N 34°38' E 135°27'0 0.0
2015-Mar-29 11:32N 34°38' E 135°27'0 0.1
2015-Mar-29 10:33N 34°38' E 135°27'0 0.0
2015-Mar-29 09:32N 34°38' E 135°27'0 0.0
2015-Mar-29 08:32N 34°38' E 135°27'0 0.0
2015-Mar-29 07:31N 34°38' E 135°27'9 9.2
2015-Mar-29 06:33N 34°33' E 135°18'1211.9
2015-Mar-29 05:33N 34°25' E 135°07'1211.4
2015-Mar-29 04:31N 34°15' E 134°59'1111.4
2015-Mar-29 03:32N 34°04' E 135°00'  
2015-Mar-22 11:33N 35°04' E 139°34'1110.9
2015-Mar-22 10:33N 35°11' E 139°45'1110.7
2015-Mar-22 09:34N 35°21' E 139°42'1110.8
2015-Mar-22 08:33N 35°31' E 139°48'1 0.1
2015-Mar-21 21:33N 35°31' E 139°50'2 1.3
2015-Mar-21 20:18N 35°30' E 139°49'912.0
2015-Mar-21 19:33N 35°21' E 139°45'1211.7
2015-Mar-21 18:33N 35°10' E 139°47'1211.6
2015-Mar-21 17:34N 35°01' E 139°37'  
Track history (hours):
 
Tides and Currents Weather Stations Pressure Air Temp Water Temp Dewpoint Dewpoint Depression Visibility Wind Speed Wind Dir Waves Ship Positions

Ohshima Kazumaru

Last reported at 2015-Mar-29 13:33 UTC. Time now 2015-Mar-29 13:41 UTC.
Position N 34°38' E 135°27'.

Length 69 m; draft 4 m.

Type: Cargo ship. MMSI: 431000925.

Date/timePositionNaut miles runAvg speedWind from/ knotsBaromVisibWave heightAir tempDewpointWater temp
2015-Mar-29 13:33N 34°38' E 135°27'0 0.0
2015-Mar-29 12:33N 34°38' E 135°27'0 0.0
2015-Mar-29 11:32N 34°38' E 135°27'0 0.1
2015-Mar-29 10:33N 34°38' E 135°27'0 0.0
2015-Mar-29 09:32N 34°38' E 135°27'0 0.0
2015-Mar-29 08:32N 34°38' E 135°27'0 0.0
2015-Mar-29 07:31N 34°38' E 135°27'9 9.2
2015-Mar-29 06:33N 34°33' E 135°18'1211.9
2015-Mar-29 05:33N 34°25' E 135°07'1211.4
2015-Mar-29 04:31N 34°15' E 134°59'1111.4
2015-Mar-29 03:32N 34°04' E 135°00'  
2015-Mar-22 11:33N 35°04' E 139°34'1110.9
2015-Mar-22 10:33N 35°11' E 139°45'1110.7
2015-Mar-22 09:34N 35°21' E 139°42'1110.8
2015-Mar-22 08:33N 35°31' E 139°48'1 0.1
2015-Mar-21 21:33N 35°31' E 139°50'2 1.3
2015-Mar-21 20:18N 35°30' E 139°49'912.0
2015-Mar-21 19:33N 35°21' E 139°45'1211.7
2015-Mar-21 18:33N 35°10' E 139°47'1211.6
2015-Mar-21 17:34N 35°01' E 139°37'  

Dump ship's entire track history